Time;durP1;ratioP1;P1;durP2;ratioP2;P2;SDS_P1;SDS_P2;PMS_P1;PMS_P2;Temp;Humidity;BMP_temperature;BMP_pressure;BME280_temperature;BME280_humidity;BME280_pressure;Samples;Min_cycle;Max_cycle;Signal;HPM_P1;HPM_P2
2021/10/04 00:02:00;;;;;;;1.65;0.98;;;14.70;91.20;;;;;;4876997;29;20092;-86
2021/10/04 00:04:25;;;;;;;0.82;0.82;;;14.70;91.10;;;;;;4863864;29;20208;-86
2021/10/04 00:06:51;;;;;;;0.70;0.70;;;14.70;91.10;;;;;;4886047;29;20029;-85
2021/10/04 00:09:17;;;;;;;1.00;0.80;;;14.60;91.10;;;;;;4898141;29;20044;-89
2021/10/04 00:11:43;;;;;;;1.05;0.70;;;14.60;91.10;;;;;;4895208;29;20058;-86
2021/10/04 00:14:09;;;;;;;1.80;0.80;;;14.50;91.10;;;;;;4894303;29;20029;-88
2021/10/04 00:16:36;;;;;;;1.60;1.10;;;14.60;91.10;;;;;;4874773;29;20044;-86
2021/10/04 00:19:02;;;;;;;1.58;0.93;;;14.50;91.10;;;;;;4877507;29;20032;-87
2021/10/04 00:21:28;;;;;;;0.80;0.80;;;14.50;91.20;;;;;;4876495;29;20032;-87
2021/10/04 00:23:53;;;;;;;1.10;1.00;;;14.50;91.20;;;;;;4876678;29;20029;-87
2021/10/04 00:26:19;;;;;;;1.17;0.80;;;14.50;91.30;;;;;;4876676;29;20062;-86
2021/10/04 00:28:45;;;;;;;1.20;0.95;;;14.50;91.30;;;;;;4880285;29;20029;-88
2021/10/04 00:31:10;;;;;;;1.63;1.13;;;14.50;91.20;;;;;;4900323;29;20056;-84
2021/10/04 00:33:36;;;;;;;2.22;1.42;;;14.50;91.30;;;;;;4903889;29;20033;-88
2021/10/04 00:36:02;;;;;;;0.85;0.80;;;14.50;91.20;;;;;;4901180;29;20029;-88
2021/10/04 00:38:28;;;;;;;1.35;0.90;;;14.40;91.20;;;;;;4892097;29;20096;-88
2021/10/04 00:40:54;;;;;;;1.90;1.05;;;14.50;91.30;;;;;;4874853;29;20483;-88
2021/10/04 00:43:21;;;;;;;1.88;1.27;;;14.40;91.30;;;;;;4861599;29;20093;-87
2021/10/04 00:45:47;;;;;;;0.90;0.85;;;14.40;91.30;;;;;;4877577;29;20169;-89
2021/10/04 00:48:13;;;;;;;1.88;0.98;;;14.50;91.40;;;;;;4876635;29;20029;-87
2021/10/04 00:50:38;;;;;;;3.25;1.60;;;14.40;91.40;;;;;;4875504;29;20040;-89
2021/10/04 00:53:04;;;;;;;1.80;0.82;;;14.40;91.50;;;;;;4875662;29;20057;-88
2021/10/04 00:55:30;;;;;;;2.60;1.38;;;14.40;91.50;;;;;;4876283;29;20049;-87
2021/10/04 00:57:59;;;;;;;2.38;0.90;;;14.50;91.40;;;;;;4876361;29;20061;-88
2021/10/04 01:00:27;;;;;;;1.63;1.20;;;14.50;91.50;;;;;;4880493;29;20025;-88
2021/10/04 01:02:53;;;;;;;1.42;0.90;;;14.50;91.50;;;;;;4880744;29;20278;-86
2021/10/04 01:05:18;;;;;;;0.70;0.70;;;14.50;91.50;;;;;;4881950;29;20095;-89
2021/10/04 01:07:44;;;;;;;1.98;1.35;;;14.50;91.50;;;;;;4878261;29;20026;-89
2021/10/04 01:10:11;;;;;;;1.33;1.13;;;14.50;91.60;;;;;;4875449;29;20044;-87
2021/10/04 01:12:42;;;;;;;1.17;1.08;;;14.50;91.60;;;;;;4896200;29;20497;-88
2021/10/04 01:15:09;;;;;;;1.02;0.80;;;14.50;91.60;;;;;;4898569;29;20040;-87
2021/10/04 01:17:35;;;;;;;1.45;0.75;;;14.40;91.40;;;;;;4896425;29;20025;-88
2021/10/04 01:20:12;;;;;;;0.90;0.70;;;14.40;91.40;;;;;;4900537;29;20132;-89
2021/10/04 01:22:38;;;;;;;0.98;0.90;;;14.30;91.50;;;;;;4876811;29;20210;-89
2021/10/04 01:25:05;;;;;;;0.70;0.70;;;14.30;91.50;;;;;;4894520;29;20528;-88
2021/10/04 01:27:30;;;;;;;1.08;0.90;;;14.30;91.50;;;;;;4882635;29;20490;-87
2021/10/04 01:29:56;;;;;;;0.68;0.68;;;14.30;91.50;;;;;;4874179;29;20121;-88
2021/10/04 01:32:21;;;;;;;1.15;0.85;;;14.20;91.50;;;;;;4877271;29;20060;-89
2021/10/04 01:34:47;;;;;;;2.13;1.00;;;14.20;91.40;;;;;;4879857;29;20116;-88
2021/10/04 01:37:13;;;;;;;1.35;0.75;;;14.20;91.50;;;;;;4877438;29;20022;-88
2021/10/04 01:39:38;;;;;;;1.08;0.77;;;14.10;91.50;;;;;;4869212;29;20017;-88
2021/10/04 01:42:04;;;;;;;0.98;0.90;;;14.10;91.60;;;;;;4894355;29;20036;-87
2021/10/04 01:44:30;;;;;;;1.00;0.70;;;14.00;91.70;;;;;;4882714;29;20194;-88
2021/10/04 01:46:56;;;;;;;0.60;0.60;;;14.10;91.80;;;;;;4883526;29;20041;-87
2021/10/04 01:49:21;;;;;;;0.77;0.70;;;14.10;91.80;;;;;;4893558;29;20044;-87
2021/10/04 01:51:47;;;;;;;0.93;0.60;;;14.10;91.80;;;;;;4881570;29;20486;-87
2021/10/04 01:54:12;;;;;;;2.05;0.70;;;14.20;91.90;;;;;;4887377;29;20048;-88
2021/10/04 01:56:38;;;;;;;0.70;0.70;;;14.20;91.90;;;;;;4873690;29;20396;-88
2021/10/04 01:59:04;;;;;;;0.60;0.60;;;14.10;91.80;;;;;;4877130;29;20029;-89
2021/10/04 02:01:30;;;;;;;2.88;0.70;;;14.10;91.80;;;;;;4876045;29;20090;-88
2021/10/04 02:03:56;;;;;;;0.50;0.50;;;14.20;91.80;;;;;;4866561;29;20089;-86
2021/10/04 02:06:22;;;;;;;0.90;0.63;;;14.10;91.80;;;;;;4877000;29;20215;-86
2021/10/04 02:08:47;;;;;;;0.60;0.50;;;14.10;91.80;;;;;;4888331;29;20046;-87
2021/10/04 02:11:13;;;;;;;0.80;0.60;;;14.10;91.80;;;;;;4877046;29;20029;-86
2021/10/04 02:13:39;;;;;;;0.80;0.60;;;14.10;91.70;;;;;;4877390;29;20726;-87
2021/10/04 02:16:05;;;;;;;0.68;0.60;;;14.00;91.60;;;;;;4877363;29;20060;-87
2021/10/04 02:18:31;;;;;;;0.45;0.45;;;13.90;91.70;;;;;;4875181;29;20502;-86
2021/10/04 02:20:57;;;;;;;0.50;0.50;;;13.90;91.70;;;;;;4862517;29;20061;-86
2021/10/04 02:23:23;;;;;;;0.30;0.30;;;13.90;91.60;;;;;;4878029;29;20045;-88
2021/10/04 02:25:52;;;;;;;0.52;0.52;;;13.80;91.70;;;;;;4868409;29;20530;-89
2021/10/04 02:28:18;;;;;;;0.90;0.40;;;13.80;91.80;;;;;;4873949;29;20021;-87
2021/10/04 02:30:44;;;;;;;0.38;0.30;;;13.80;91.80;;;;;;4877826;29;20068;-89
2021/10/04 02:33:11;;;;;;;0.32;0.30;;;13.80;91.80;;;;;;4871207;29;20204;-86
2021/10/04 02:35:37;;;;;;;0.40;0.40;;;13.80;91.80;;;;;;4871674;29;20037;-86
2021/10/04 02:38:03;;;;;;;1.65;0.50;;;13.80;91.80;;;;;;4877006;29;20554;-88
2021/10/04 02:40:29;;;;;;;0.30;0.30;;;13.90;91.90;;;;;;4877623;29;20021;-88
2021/10/04 02:42:55;;;;;;;0.60;0.40;;;13.80;91.80;;;;;;4876562;29;20060;-87
2021/10/04 02:45:22;;;;;;;0.65;0.50;;;13.80;91.70;;;;;;4878476;29;20067;-87
2021/10/04 02:47:52;;;;;;;0.40;0.40;;;13.80;91.80;;;;;;4877259;29;20040;-88
2021/10/04 02:50:20;;;;;;;0.60;0.50;;;13.70;91.80;;;;;;4869822;29;20551;-87
2021/10/04 02:52:46;;;;;;;1.13;0.50;;;13.80;91.90;;;;;;4868783;29;20393;-88
2021/10/04 02:55:12;;;;;;;0.75;0.70;;;13.80;91.90;;;;;;4876381;29;20040;-88
2021/10/04 02:57:38;;;;;;;0.98;0.60;;;13.70;91.90;;;;;;4869515;29;20034;-88
2021/10/04 03:00:07;;;;;;;1.17;0.80;;;13.70;91.70;;;;;;4877182;29;20032;-87
2021/10/04 03:02:33;;;;;;;1.83;1.30;;;13.60;91.70;;;;;;4868260;29;20477;-86
2021/10/04 03:04:58;;;;;;;1.50;1.00;;;13.60;91.80;;;;;;4879283;29;20089;-88
2021/10/04 03:07:24;;;;;;;1.58;0.80;;;13.50;91.90;;;;;;4893725;29;20033;-87
2021/10/04 03:09:51;;;;;;;0.82;0.70;;;13.50;92.00;;;;;;4895217;29;20057;-87
2021/10/04 03:12:17;;;;;;;0.60;0.60;;;13.50;92.10;;;;;;4894759;29;20084;-85
2021/10/04 03:14:43;;;;;;;0.80;0.80;;;13.50;92.10;;;;;;4888090;29;20041;-87
2021/10/04 03:17:09;;;;;;;0.50;0.50;;;13.60;92.20;;;;;;4883945;29;20619;-88
2021/10/04 03:19:34;;;;;;;0.60;0.60;;;13.50;92.20;;;;;;4879500;29;20044;-88
2021/10/04 03:22:00;;;;;;;0.95;0.57;;;13.50;92.10;;;;;;4879392;29;20029;-88
2021/10/04 03:24:25;;;;;;;3.20;1.25;;;13.50;92.10;;;;;;4878899;29;20029;-88
2021/10/04 03:26:51;;;;;;;1.52;0.65;;;13.50;92.20;;;;;;4877679;29;20501;-88
2021/10/04 03:29:17;;;;;;;1.60;1.00;;;13.50;92.20;;;;;;4879196;29;20040;-88
2021/10/04 03:31:43;;;;;;;3.65;1.25;;;13.50;92.30;;;;;;4880632;29;20104;-85
2021/10/04 03:34:09;;;;;;;1.02;0.70;;;13.40;92.20;;;;;;4876867;29;20029;-86
2021/10/04 03:36:35;;;;;;;1.20;0.70;;;13.40;92.30;;;;;;4876858;29;20036;-84
2021/10/04 03:39:01;;;;;;;2.13;0.60;;;13.40;92.40;;;;;;4877383;29;20029;-86
2021/10/04 03:41:27;;;;;;;0.65;0.57;;;13.50;92.40;;;;;;4875324;29;20029;-87
2021/10/04 03:43:53;;;;;;;0.60;0.60;;;13.50;92.40;;;;;;4874088;29;20029;-85
2021/10/04 03:46:18;;;;;;;1.02;0.95;;;13.60;92.30;;;;;;4866960;29;20565;-85
2021/10/04 03:48:44;;;;;;;0.60;0.60;;;13.50;92.20;;;;;;4869138;29;20133;-83
2021/10/04 03:51:09;;;;;;;0.57;0.57;;;13.50;92.30;;;;;;4874461;29;20127;-85
2021/10/04 03:53:35;;;;;;;0.70;0.70;;;13.50;92.30;;;;;;4864957;29;20077;-86
2021/10/04 03:56:01;;;;;;;2.38;0.75;;;13.40;92.30;;;;;;4877267;29;20052;-85
2021/10/04 03:58:28;;;;;;;1.20;1.10;;;13.40;92.30;;;;;;4877433;29;20103;-86
2021/10/04 04:00:53;;;;;;;1.48;0.93;;;13.40;92.40;;;;;;4878422;29;20610;-85
2021/10/04 04:03:19;;;;;;;0.80;0.70;;;13.40;92.70;;;;;;4876475;29;20033;-84
2021/10/04 04:05:45;;;;;;;2.42;1.10;;;13.40;92.50;;;;;;4878285;29;20108;-85
2021/10/04 04:08:10;;;;;;;0.90;0.90;;;13.40;92.40;;;;;;4879880;29;20437;-85
2021/10/04 04:10:36;;;;;;;2.90;1.73;;;13.40;92.40;;;;;;4878687;29;20033;-87
2021/10/04 04:13:02;;;;;;;2.95;1.20;;;13.30;92.50;;;;;;4872726;29;20033;-86
2021/10/04 04:15:27;;;;;;;1.23;1.00;;;13.30;92.40;;;;;;4877067;29;20033;-84
2021/10/04 04:17:53;;;;;;;1.40;1.20;;;13.20;92.30;;;;;;4876966;29;20040;-85
2021/10/04 04:20:19;;;;;;;4.13;0.85;;;13.20;92.40;;;;;;4878603;29;20549;-84
2021/10/04 04:22:45;;;;;;;1.27;1.17;;;13.20;92.50;;;;;;4876259;29;20064;-85
2021/10/04 04:25:12;;;;;;;2.65;1.20;;;13.10;92.50;;;;;;4873753;29;20044;-86
2021/10/04 04:27:38;;;;;;;1.25;1.15;;;13.00;92.50;;;;;;4876808;29;20033;-84
2021/10/04 04:30:08;;;;;;;0.90;0.90;;;13.00;92.60;;;;;;4870204;29;20072;-86
2021/10/04 04:32:35;;;;;;;3.35;1.92;;;13.00;92.70;;;;;;4877654;29;20033;-84
2021/10/04 04:35:05;;;;;;;3.60;2.65;;;13.00;92.70;;;;;;4878485;29;20115;-86
2021/10/04 04:37:32;;;;;;;1.40;1.30;;;13.00;92.60;;;;;;4879921;29;20034;-85
2021/10/04 04:39:58;;;;;;;0.85;0.85;;;13.00;92.70;;;;;;4863939;29;20037;-84
2021/10/04 04:42:25;;;;;;;1.98;0.70;;;12.90;92.60;;;;;;4865810;29;20040;-85
2021/10/04 04:44:51;;;;;;;0.40;0.40;;;12.90;92.70;;;;;;4873722;29;20477;-86
2021/10/04 04:47:17;;;;;;;1.58;0.50;;;12.90;92.80;;;;;;4883170;29;20029;-86
2021/10/04 04:49:42;;;;;;;0.77;0.50;;;12.80;92.80;;;;;;4882298;29;20039;-85
2021/10/04 04:52:08;;;;;;;0.60;0.60;;;12.80;92.70;;;;;;4878803;29;20064;-85
2021/10/04 04:54:34;;;;;;;1.00;0.80;;;12.80;92.90;;;;;;4879645;29;20083;-85
2021/10/04 04:57:00;;;;;;;1.67;0.90;;;12.70;92.90;;;;;;4869284;29;20059;-87
2021/10/04 04:59:27;;;;;;;0.90;0.70;;;12.70;92.90;;;;;;4863921;29;20022;-85
2021/10/04 05:01:53;;;;;;;0.98;0.60;;;12.80;93.00;;;;;;4873812;29;20029;-85
2021/10/04 11:07:03;;;;;;;1.00;1.00;;;14.10;94.60;;;;;;4879151;29;20045;-86
2021/10/04 11:10:05;;;;;;;0.60;0.60;;;14.20;94.60;;;;;;4879274;29;20664;-86
2021/10/04 11:13:09;;;;;;;0.75;0.75;;;14.20;94.70;;;;;;4879775;29;20029;-86
2021/10/04 11:15:37;;;;;;;1.00;1.00;;;14.30;94.60;;;;;;4879116;29;20028;-86
2021/10/04 11:18:04;;;;;;;0.88;0.88;;;14.30;94.50;;;;;;4879632;29;20032;-86
2021/10/04 11:20:30;;;;;;;0.70;0.68;;;14.30;94.40;;;;;;4880771;29;20064;-86
2021/10/04 11:23:16;;;;;;;0.80;0.80;;;14.30;94.40;;;;;;4879906;29;20041;-86
2021/10/04 11:25:49;;;;;;;1.48;0.82;;;14.20;94.30;;;;;;4879159;29;20029;-86
2021/10/04 11:28:15;;;;;;;;;;;14.30;94.40;;;;;;4878217;29;20074;-86
2021/10/04 11:31:12;;;;;;;0.50;0.50;;;14.30;94.20;;;;;;4873054;29;20414;-86
2021/10/04 11:33:48;;;;;;;1.05;0.70;;;14.30;94.20;;;;;;4861911;29;20498;-88
2021/10/04 11:36:15;;;;;;;0.70;0.70;;;14.20;94.00;;;;;;4877648;29;20527;-85
2021/10/04 11:38:51;;;;;;;0.50;0.50;;;14.20;93.90;;;;;;4878086;29;20183;-86
2021/10/04 11:41:27;;;;;;;3.78;3.38;;;14.20;94.00;;;;;;4878634;29;20494;-86
2021/10/04 11:43:59;;;;;;;0.73;0.73;;;14.20;94.10;;;;;;4878052;29;20041;-86
2021/10/04 11:46:28;;;;;;;0.80;0.80;;;14.20;94.00;;;;;;4878062;29;20056;-86
2021/10/04 11:49:21;;;;;;;0.93;0.70;;;14.20;93.90;;;;;;4879437;29;20025;-87
2021/10/04 11:51:50;;;;;;;0.60;0.60;;;14.20;93.80;;;;;;4872415;29;20034;-86
2021/10/04 11:54:34;;;;;;;1.00;1.00;;;14.20;93.70;;;;;;4877134;29;20387;-86
2021/10/04 11:57:03;;;;;;;0.70;0.70;;;14.20;93.80;;;;;;4878143;29;20036;-86
2021/10/04 11:59:28;;;;;;;0.95;0.60;;;14.20;93.80;;;;;;4877812;29;20557;-86
2021/10/04 12:01:54;;;;;;;0.60;0.60;;;14.20;93.70;;;;;;4877737;29;20036;-86
2021/10/04 12:04:21;;;;;;;0.80;0.80;;;14.10;93.60;;;;;;4878050;29;20509;-86
2021/10/04 12:06:48;;;;;;;0.80;0.80;;;14.10;93.60;;;;;;4878163;29;20040;-87
2021/10/04 12:09:16;;;;;;;0.75;0.75;;;14.10;93.50;;;;;;4878105;29;20491;-86
2021/10/04 12:11:53;;;;;;;0.75;0.75;;;14.20;93.70;;;;;;4876615;29;20033;-86
2021/10/04 12:14:21;;;;;;;0.80;0.80;;;14.20;93.70;;;;;;4877303;29;20025;-86
2021/10/04 12:16:47;;;;;;;0.60;0.60;;;14.20;93.60;;;;;;4877707;29;20164;-86
2021/10/04 12:19:14;;;;;;;0.73;0.70;;;14.20;93.50;;;;;;4878705;29;20032;-86
2021/10/04 12:21:39;;;;;;;0.60;0.60;;;14.20;93.50;;;;;;4869463;29;20052;-86
2021/10/04 12:24:41;;;;;;;0.52;0.52;;;14.20;93.50;;;;;;4876000;29;20492;-86
2021/10/04 12:27:13;;;;;;;1.90;1.73;;;14.20;93.50;;;;;;4842564;29;20037;-86
2021/10/04 12:29:57;;;;;;;1.45;1.30;;;14.30;93.50;;;;;;4863817;29;20033;-86
2021/10/04 12:32:35;;;;;;;0.73;0.73;;;14.30;93.40;;;;;;4876111;29;20044;-86
2021/10/04 12:35:14;;;;;;;0.85;0.85;;;14.20;93.30;;;;;;4877517;29;20413;-86
2021/10/04 12:37:55;;;;;;;0.57;0.57;;;14.20;93.30;;;;;;4881290;29;20040;-88
2021/10/04 12:40:33;;;;;;;0.70;0.70;;;14.30;93.40;;;;;;4881222;29;20037;-87
2021/10/04 12:43:11;;;;;;;1.40;0.60;;;14.30;93.40;;;;;;4878712;29;20405;-87
2021/10/04 12:45:37;;;;;;;1.60;0.60;;;14.30;93.30;;;;;;4880034;29;20073;-86
2021/10/04 12:48:23;;;;;;;0.70;0.70;;;14.30;93.30;;;;;;4878910;29;20025;-86
2021/10/04 12:51:00;;;;;;;0.90;0.90;;;14.40;93.20;;;;;;4879643;29;20022;-86
2021/10/04 12:53:26;;;;;;;1.10;1.10;;;14.40;93.20;;;;;;4870682;29;20040;-86
2021/10/04 12:55:59;;;;;;;0.80;0.80;;;14.30;92.90;;;;;;4879618;29;20053;-87
2021/10/04 12:58:27;;;;;;;0.85;0.85;;;14.30;93.00;;;;;;4882152;29;20508;-87
2021/10/04 13:00:55;;;;;;;0.90;0.90;;;14.30;93.20;;;;;;4881648;29;20080;-87
2021/10/04 13:03:22;;;;;;;0.93;0.88;;;14.30;93.20;;;;;;4881878;29;20033;-86
2021/10/04 13:05:52;;;;;;;1.17;1.17;;;14.40;93.10;;;;;;4882327;29;20029;-87
2021/10/04 13:08:19;;;;;;;1.10;1.00;;;14.40;93.00;;;;;;4884454;29;20021;-87
2021/10/04 13:10:45;;;;;;;0.93;0.93;;;14.50;93.10;;;;;;4884348;29;20035;-87
2021/10/04 13:13:11;;;;;;;0.90;0.90;;;14.60;93.10;;;;;;4886503;29;20033;-87
2021/10/04 13:15:37;;;;;;;1.00;1.00;;;14.60;93.00;;;;;;4880543;29;20034;-87
2021/10/04 13:18:03;;;;;;;0.77;0.77;;;14.60;93.00;;;;;;4864369;29;20117;-87
2021/10/04 13:20:29;;;;;;;1.15;0.90;;;14.60;93.00;;;;;;4867363;29;20064;-88
2021/10/04 13:22:55;;;;;;;0.95;0.85;;;14.70;93.30;;;;;;4863262;29;20082;-87
2021/10/04 13:25:21;;;;;;;1.00;0.90;;;14.70;92.90;;;;;;4863858;29;20033;-87
2021/10/04 13:27:47;;;;;;;3.75;2.92;;;14.70;92.70;;;;;;4867085;29;20097;-87
2021/10/04 13:30:13;;;;;;;1.33;0.88;;;14.70;92.70;;;;;;4882420;29;20051;-87
2021/10/04 13:32:39;;;;;;;0.60;0.60;;;14.70;92.70;;;;;;4872091;29;20033;-87
2021/10/04 13:35:06;;;;;;;1.23;0.80;;;14.60;92.60;;;;;;4881743;29;20037;-88
2021/10/04 13:37:31;;;;;;;2.03;0.70;;;14.60;92.60;;;;;;4881596;29;20021;-87
2021/10/04 13:39:57;;;;;;;0.80;0.80;;;14.60;92.70;;;;;;4882068;29;20039;-87
2021/10/04 13:42:24;;;;;;;0.90;0.90;;;14.70;92.70;;;;;;4883245;29;20131;-87
2021/10/04 13:44:50;;;;;;;0.70;0.65;;;14.70;92.70;;;;;;4880688;29;20047;-87
2021/10/04 13:47:15;;;;;;;0.63;0.63;;;14.70;92.60;;;;;;4882082;29;20215;-87
2021/10/04 13:49:41;;;;;;;0.70;0.70;;;14.80;92.50;;;;;;4882191;29;20036;-87
2021/10/04 13:52:07;;;;;;;0.60;0.60;;;14.70;92.40;;;;;;4881038;29;20036;-87
2021/10/04 13:54:33;;;;;;;0.65;0.65;;;14.70;92.40;;;;;;4878066;29;20084;-87
2021/10/04 13:56:59;;;;;;;0.70;0.70;;;14.70;92.30;;;;;;4888097;29;20029;-88
2021/10/04 13:59:25;;;;;;;0.85;0.85;;;14.70;92.20;;;;;;4878853;29;20105;-88
2021/10/04 14:01:51;;;;;;;1.00;1.00;;;14.70;92.20;;;;;;4884011;29;20033;-87
2021/10/04 14:04:16;;;;;;;0.80;0.80;;;14.70;92.10;;;;;;4882858;29;20115;-87
2021/10/04 14:06:42;;;;;;;0.90;0.90;;;14.70;92.20;;;;;;4882374;29;20057;-87
2021/10/04 14:09:07;;;;;;;1.02;1.02;;;14.70;92.30;;;;;;4882986;29;20426;-87
2021/10/04 14:11:33;;;;;;;1.65;1.02;;;14.80;92.30;;;;;;4883193;29;20470;-87
2021/10/04 14:13:58;;;;;;;0.85;0.85;;;14.80;92.30;;;;;;4882680;29;20068;-88
2021/10/04 14:16:24;;;;;;;0.93;0.75;;;14.80;92.30;;;;;;4880637;29;20032;-88
2021/10/04 14:18:51;;;;;;;0.80;0.80;;;14.80;92.40;;;;;;4880894;29;20402;-87
2021/10/04 14:21:17;;;;;;;0.90;0.90;;;14.80;92.30;;;;;;4872423;29;20025;-88
2021/10/04 14:23:43;;;;;;;1.25;0.90;;;14.80;92.30;;;;;;4869610;29;20021;-87
2021/10/04 14:26:09;;;;;;;0.70;0.70;;;14.90;92.30;;;;;;4864781;29;20632;-88
2021/10/04 14:28:36;;;;;;;0.80;0.80;;;14.90;92.30;;;;;;4877203;29;20088;-88
2021/10/04 14:31:01;;;;;;;0.88;0.70;;;14.80;92.30;;;;;;4878047;29;20413;-87
2021/10/04 14:33:27;;;;;;;0.80;0.80;;;14.80;92.20;;;;;;4864301;29;20025;-87
2021/10/04 14:35:53;;;;;;;0.80;0.80;;;14.80;92.20;;;;;;4863313;29;20047;-87
2021/10/04 14:38:20;;;;;;;1.05;0.73;;;14.80;92.20;;;;;;4863990;29;20384;-87
2021/10/04 14:40:46;;;;;;;0.70;0.70;;;14.80;92.20;;;;;;4862746;29;20036;-87
2021/10/04 14:43:12;;;;;;;0.70;0.70;;;14.80;92.30;;;;;;4869174;29;20033;-88
2021/10/04 14:45:38;;;;;;;0.70;0.65;;;14.80;92.30;;;;;;4873218;29;20025;-87
2021/10/04 14:48:04;;;;;;;1.13;1.05;;;14.80;92.20;;;;;;4864370;29;20036;-87
2021/10/04 14:50:30;;;;;;;1.50;1.40;;;14.70;92.20;;;;;;4860552;29;20078;-87
2021/10/04 14:52:55;;;;;;;1.80;1.40;;;14.70;92.10;;;;;;4858899;29;20040;-86
2021/10/04 14:55:21;;;;;;;1.20;1.10;;;14.70;92.10;;;;;;4861090;29;20017;-87
2021/10/04 14:57:47;;;;;;;0.90;0.90;;;14.70;92.20;;;;;;4878489;29;20062;-87
2021/10/04 15:00:13;;;;;;;0.95;0.90;;;14.60;92.10;;;;;;4879200;29;20625;-87
2021/10/04 15:02:39;;;;;;;0.90;0.90;;;14.60;92.20;;;;;;4878195;29;20398;-86
2021/10/04 15:05:07;;;;;;;0.80;0.80;;;14.60;92.20;;;;;;4864954;29;20509;-86
2021/10/04 15:07:32;;;;;;;1.63;1.10;;;14.60;92.20;;;;;;4874107;29;20096;-88
2021/10/04 15:09:58;;;;;;;1.27;1.00;;;14.60;92.20;;;;;;4867212;29;20409;-86
2021/10/04 15:12:24;;;;;;;0.88;0.82;;;14.60;92.30;;;;;;4869453;29;20085;-87
2021/10/04 15:14:50;;;;;;;0.95;0.95;;;14.60;92.20;;;;;;4879391;29;20465;-86
2021/10/04 15:17:17;;;;;;;0.88;0.88;;;14.60;92.30;;;;;;4877417;29;20112;-86
2021/10/04 15:19:43;;;;;;;1.00;1.00;;;14.60;92.30;;;;;;4876991;29;20032;-86
2021/10/04 15:22:08;;;;;;;1.00;0.98;;;14.60;92.20;;;;;;4879445;29;20494;-86
2021/10/04 15:24:35;;;;;;;1.17;1.10;;;14.60;92.20;;;;;;4879245;29;20522;-86
2021/10/04 15:27:00;;;;;;;1.60;1.50;;;14.60;92.30;;;;;;4878307;29;20032;-86
2021/10/04 15:29:26;;;;;;;0.98;0.98;;;14.60;92.30;;;;;;4879569;29;20490;-86
2021/10/04 15:31:51;;;;;;;1.05;1.00;;;14.50;92.30;;;;;;4874326;29;20399;-86
2021/10/04 15:34:17;;;;;;;0.80;0.80;;;14.50;92.30;;;;;;4876794;29;20032;-86
2021/10/04 15:36:43;;;;;;;1.02;0.65;;;14.50;92.30;;;;;;4880763;29;20036;-87
2021/10/04 15:39:09;;;;;;;1.08;0.80;;;14.50;92.40;;;;;;4880476;29;20025;-87
2021/10/04 15:41:34;;;;;;;1.02;0.93;;;14.50;92.30;;;;;;4870608;29;20502;-87
2021/10/04 15:44:00;;;;;;;1.73;0.80;;;14.40;92.30;;;;;;4880093;29;20065;-87
2021/10/04 15:46:25;;;;;;;0.80;0.70;;;14.50;92.40;;;;;;4881349;29;20037;-87
2021/10/04 15:48:51;;;;;;;1.17;0.85;;;14.40;92.40;;;;;;4881424;29;20035;-87
2021/10/04 15:51:17;;;;;;;0.80;0.80;;;14.40;92.40;;;;;;4881540;29;20072;-87
2021/10/04 15:53:43;;;;;;;0.90;0.90;;;14.40;92.40;;;;;;4880975;29;20060;-87
2021/10/04 15:56:08;;;;;;;0.98;0.90;;;14.40;92.50;;;;;;4873424;29;20085;-87
2021/10/04 15:58:38;;;;;;;1.17;0.80;;;14.40;92.50;;;;;;4870021;29;20022;-87
2021/10/04 16:01:06;;;;;;;0.60;0.60;;;14.40;92.50;;;;;;4881060;29;20044;-87
2021/10/04 16:03:32;;;;;;;0.70;0.70;;;14.40;92.50;;;;;;4867115;29;20029;-87
2021/10/04 16:05:58;;;;;;;1.52;0.70;;;14.40;92.50;;;;;;4864342;29;20070;-87
2021/10/04 16:08:26;;;;;;;0.73;0.68;;;14.40;92.50;;;;;;4875384;29;20029;-87
2021/10/04 16:10:55;;;;;;;0.73;0.70;;;14.30;92.50;;;;;;4871421;29;20056;-87
2021/10/04 16:13:24;;;;;;;1.50;0.80;;;14.30;92.50;;;;;;4873653;29;20025;-87
2021/10/04 16:15:53;;;;;;;1.33;1.00;;;14.30;92.50;;;;;;4869766;29;20371;-86
2021/10/04 16:18:19;;;;;;;1.23;1.20;;;14.40;92.60;;;;;;4878746;29;20478;-86
2021/10/04 16:20:45;;;;;;;1.40;0.98;;;14.30;92.60;;;;;;4879420;29;20033;-87
2021/10/04 16:23:11;;;;;;;1.55;1.45;;;14.30;92.60;;;;;;4880843;29;20462;-87
2021/10/04 16:25:39;;;;;;;1.45;1.33;;;14.40;92.70;;;;;;4883448;29;20035;-87
2021/10/04 16:28:06;;;;;;;1.45;1.35;;;14.30;92.60;;;;;;4897668;29;20017;-87
2021/10/04 16:30:32;;;;;;;1.20;1.10;;;14.30;92.70;;;;;;4890473;29;20190;-87
2021/10/04 16:32:58;;;;;;;8.63;7.15;;;14.30;92.70;;;;;;4871107;29;20028;-87
2021/10/04 16:35:25;;;;;;;2.15;1.80;;;14.30;92.80;;;;;;4868144;29;20025;-87
2021/10/04 16:37:50;;;;;;;1.45;1.42;;;14.30;92.80;;;;;;4866253;29;20032;-86
2021/10/04 16:40:16;;;;;;;1.60;1.50;;;14.30;92.80;;;;;;4864355;29;20506;-87
2021/10/04 16:42:42;;;;;;;1.50;1.40;;;14.30;92.80;;;;;;4863850;29;20066;-87
2021/10/04 16:45:10;;;;;;;1.63;1.52;;;14.20;92.80;;;;;;4872745;29;20498;-87
2021/10/04 16:47:36;;;;;;;1.45;1.35;;;14.20;92.90;;;;;;4883049;29;20025;-87
2021/10/04 16:50:03;;;;;;;1.70;1.60;;;14.20;92.90;;;;;;4883325;29;20025;-87
2021/10/04 16:52:28;;;;;;;1.63;1.52;;;14.20;92.90;;;;;;4882595;29;20067;-86
2021/10/04 16:54:54;;;;;;;3.00;1.90;;;14.20;92.90;;;;;;4883010;29;20390;-87
2021/10/04 16:57:20;;;;;;;1.90;1.80;;;14.20;92.90;;;;;;4872307;29;20068;-87
2021/10/04 16:59:46;;;;;;;1.80;1.63;;;14.20;92.90;;;;;;4871575;29;20506;-86
2021/10/04 17:02:13;;;;;;;1.73;1.63;;;14.20;93.00;;;;;;4864462;29;20364;-86
2021/10/04 23:09:13;;;;;;;6.35;4.60;;;12.10;94.70;;;;;;4862101;29;20056;-86
2021/10/04 23:11:39;;;;;;;6.32;5.15;;;12.00;94.60;;;;;;4858619;29;20145;-86
2021/10/04 23:14:04;;;;;;;5.95;5.15;;;12.00;94.70;;;;;;4858417;29;20805;-86
2021/10/04 23:16:30;;;;;;;5.50;4.93;;;12.00;94.70;;;;;;4862540;29;20056;-86
2021/10/04 23:18:55;;;;;;;6.80;5.07;;;11.90;94.70;;;;;;4877131;29;20021;-85
2021/10/04 23:21:21;;;;;;;5.93;5.32;;;11.90;94.70;;;;;;4878610;29;20120;-86
2021/10/04 23:23:47;;;;;;;5.28;4.78;;;11.90;94.70;;;;;;4878441;29;20061;-87
2021/10/04 23:26:12;;;;;;;6.30;5.63;;;11.90;94.70;;;;;;4878573;29;20033;-85
2021/10/04 23:28:38;;;;;;;5.90;5.35;;;11.90;94.70;;;;;;4870950;29;20394;-87
2021/10/04 23:31:04;;;;;;;5.90;5.28;;;11.90;94.70;;;;;;4863978;29;20045;-85
2021/10/04 23:33:29;;;;;;;7.30;5.50;;;11.90;94.70;;;;;;4861067;29;20065;-87
2021/10/04 23:35:55;;;;;;;6.32;5.70;;;11.90;94.70;;;;;;4877668;29;20463;-86
2021/10/04 23:38:21;;;;;;;6.28;5.65;;;11.80;94.80;;;;;;4870491;29;20077;-86
2021/10/04 23:40:46;;;;;;;7.32;5.60;;;11.80;94.90;;;;;;4876648;29;20017;-85
2021/10/04 23:43:12;;;;;;;7.25;6.25;;;11.80;94.90;;;;;;4875896;29;20033;-86
2021/10/04 23:45:39;;;;;;;7.32;6.22;;;11.80;94.90;;;;;;4876806;29;20104;-86
2021/10/04 23:48:05;;;;;;;6.45;5.78;;;11.90;94.90;;;;;;4877786;29;20039;-85
2021/10/04 23:50:30;;;;;;;7.22;6.30;;;11.90;95.00;;;;;;4877580;29;20029;-85
2021/10/04 23:52:57;;;;;;;7.70;6.45;;;11.90;95.00;;;;;;4876437;29;20037;-86
2021/10/04 23:55:23;;;;;;;8.52;6.43;;;11.90;95.00;;;;;;4877452;29;20035;-84
2021/10/04 23:57:48;;;;;;;7.32;6.38;;;12.00;95.00;;;;;;4877266;29;20074;-87
